sensor_id;sensor_type;location;lat;lon;timestamp;pressure;altitude;pressure_sealevel;temperature;humidity
10806;BME280;5455;53.224;6.000;2023-12-14T00:01:14;101106.50;;;6.02;100.00
10806;BME280;5455;53.224;6.000;2023-12-14T00:03:41;101108.44;;;6.01;100.00
10806;BME280;5455;53.224;6.000;2023-12-14T00:06:11;101116.97;;;6.00;100.00
10806;BME280;5455;53.224;6.000;2023-12-14T00:08:39;101113.91;;;6.01;100.00
10806;BME280;5455;53.224;6.000;2023-12-14T00:11:10;101115.19;;;6.04;100.00
10806;BME280;5455;53.224;6.000;2023-12-14T00:13:38;101115.81;;;6.01;100.00
10806;BME280;5455;53.224;6.000;2023-12-14T00:16:05;101130.66;;;6.00;100.00
10806;BME280;5455;53.224;6.000;2023-12-14T00:18:32;101125.19;;;6.00;100.00
10806;BME280;5455;53.224;6.000;2023-12-14T00:20:59;101131.31;;;5.97;100.00
10806;BME280;5455;53.224;6.000;2023-12-14T00:23:26;101131.94;;;5.94;100.00
10806;BME280;5455;53.224;6.000;2023-12-14T00:25:53;101130.16;;;5.89;100.00
10806;BME280;5455;53.224;6.000;2023-12-14T00:28:20;101131.09;;;5.85;100.00
10806;BME280;5455;53.224;6.000;2023-12-14T00:30:47;101129.22;;;5.85;100.00
10806;BME280;5455;53.224;6.000;2023-12-14T00:33:14;101138.03;;;5.82;100.00
10806;BME280;5455;53.224;6.000;2023-12-14T00:35:41;101153.81;;;5.85;100.00
10806;BME280;5455;53.224;6.000;2023-12-14T00:38:08;101148.03;;;5.87;100.00
10806;BME280;5455;53.224;6.000;2023-12-14T00:40:35;101148.03;;;5.87;100.00
10806;BME280;5455;53.224;6.000;2023-12-14T00:43:02;101154.91;;;5.84;100.00
10806;BME280;5455;53.224;6.000;2023-12-14T00:45:29;101168.28;;;5.86;100.00
10806;BME280;5455;53.224;6.000;2023-12-14T00:47:56;101162.03;;;5.85;100.00
10806;BME280;5455;53.224;6.000;2023-12-14T00:50:23;101170.91;;;5.91;100.00
10806;BME280;5455;53.224;6.000;2023-12-14T00:52:50;101164.91;;;5.89;100.00
10806;BME280;5455;53.224;6.000;2023-12-14T00:55:17;101171.19;;;5.89;100.00
10806;BME280;5455;53.224;6.000;2023-12-14T00:57:44;101184.41;;;5.87;100.00
10806;BME280;5455;53.224;6.000;2023-12-14T01:00:11;101187.41;;;5.77;100.00
10806;BME280;5455;53.224;6.000;2023-12-14T01:02:39;101182.75;;;5.78;100.00
10806;BME280;5455;53.224;6.000;2023-12-14T01:05:07;101195.47;;;5.82;100.00
10806;BME280;5455;53.224;6.000;2023-12-14T01:07:34;101204.31;;;5.79;100.00
10806;BME280;5455;53.224;6.000;2023-12-14T01:10:01;101202.88;;;5.82;100.00
10806;BME280;5455;53.224;6.000;2023-12-14T01:12:28;101208.00;;;5.83;100.00
10806;BME280;5455;53.224;6.000;2023-12-14T01:14:55;101216.75;;;5.85;100.00
10806;BME280;5455;53.224;6.000;2023-12-14T01:17:22;101220.59;;;5.84;100.00
10806;BME280;5455;53.224;6.000;2023-12-14T01:19:49;101221.91;;;5.87;100.00
10806;BME280;5455;53.224;6.000;2023-12-14T01:22:16;101222.34;;;5.80;100.00
10806;BME280;5455;53.224;6.000;2023-12-14T01:24:43;101225.06;;;5.80;100.00
10806;BME280;5455;53.224;6.000;2023-12-14T01:27:10;101224.44;;;5.83;100.00
10806;BME280;5455;53.224;6.000;2023-12-14T01:29:40;101229.91;;;5.83;100.00
10806;BME280;5455;53.224;6.000;2023-12-14T01:32:07;101231.69;;;5.79;100.00
10806;BME280;5455;53.224;6.000;2023-12-14T01:34:34;101233.78;;;5.82;100.00
10806;BME280;5455;53.224;6.000;2023-12-14T01:37:01;101249.59;;;5.85;100.00
10806;BME280;5455;53.224;6.000;2023-12-14T01:39:28;101252.00;;;5.87;100.00
10806;BME280;5455;53.224;6.000;2023-12-14T01:41:55;101250.56;;;5.89;100.00
10806;BME280;5455;53.224;6.000;2023-12-14T01:44:22;101251.69;;;5.88;100.00
10806;BME280;5455;53.224;6.000;2023-12-14T01:46:49;101258.75;;;5.89;100.00
10806;BME280;5455;53.224;6.000;2023-12-14T01:49:16;101254.09;;;5.90;100.00
10806;BME280;5455;53.224;6.000;2023-12-14T01:51:43;101256.84;;;5.90;100.00
10806;BME280;5455;53.224;6.000;2023-12-14T01:54:10;101259.09;;;5.88;100.00
10806;BME280;5455;53.224;6.000;2023-12-14T01:56:37;101268.78;;;5.94;100.00
10806;BME280;5455;53.224;6.000;2023-12-14T01:59:03;101271.81;;;5.92;100.00
10806;BME280;5455;53.224;6.000;2023-12-14T02:01:41;101271.00;;;5.92;100.00
10806;BME280;5455;53.224;6.000;2023-12-14T02:04:10;101268.59;;;5.90;100.00
10806;BME280;5455;53.224;6.000;2023-12-14T02:06:39;101267.06;;;5.76;100.00
10806;BME280;5455;53.224;6.000;2023-12-14T02:09:06;101283.81;;;5.83;100.00
10806;BME280;5455;53.224;6.000;2023-12-14T02:11:33;101289.81;;;5.85;100.00
10806;BME280;5455;53.224;6.000;2023-12-14T02:14:08;101292.03;;;5.83;100.00
10806;BME280;5455;53.224;6.000;2023-12-14T02:16:35;101292.03;;;5.83;100.00
10806;BME280;5455;53.224;6.000;2023-12-14T02:19:05;101298.53;;;5.87;100.00
10806;BME280;5455;53.224;6.000;2023-12-14T02:21:32;101299.50;;;5.91;100.00
10806;BME280;5455;53.224;6.000;2023-12-14T02:23:59;101302.25;;;5.91;100.00
10806;BME280;5455;53.224;6.000;2023-12-14T02:26:26;101304.31;;;5.85;100.00
10806;BME280;5455;53.224;6.000;2023-12-14T02:28:53;101314.63;;;5.88;100.00
10806;BME280;5455;53.224;6.000;2023-12-14T02:31:20;101312.84;;;5.92;100.00
10806;BME280;5455;53.224;6.000;2023-12-14T02:33:47;101318.84;;;5.94;100.00
10806;BME280;5455;53.224;6.000;2023-12-14T02:36:14;101320.13;;;5.97;100.00
10806;BME280;5455;53.224;6.000;2023-12-14T02:38:41;101318.34;;;5.92;100.00
10806;BME280;5455;53.224;6.000;2023-12-14T02:41:10;101322.06;;;5.96;100.00
10806;BME280;5455;53.224;6.000;2023-12-14T02:43:37;101323.19;;;5.95;100.00
10806;BME280;5455;53.224;6.000;2023-12-14T02:46:05;101327.84;;;5.95;100.00
10806;BME280;5455;53.224;6.000;2023-12-14T02:48:32;101323.81;;;5.92;100.00
10806;BME280;5455;53.224;6.000;2023-12-14T02:50:59;101328.47;;;5.92;100.00
10806;BME280;5455;53.224;6.000;2023-12-14T02:53:27;101333.16;;;5.91;100.00
10806;BME280;5455;53.224;6.000;2023-12-14T02:55:54;101337.50;;;5.92;100.00
10806;BME280;5455;53.224;6.000;2023-12-14T02:58:21;101345.41;;;5.94;100.00
10806;BME280;5455;53.224;6.000;2023-12-14T03:00:48;101341.03;;;5.93;100.00
10806;BME280;5455;53.224;6.000;2023-12-14T03:03:15;101338.94;;;5.90;100.00
10806;BME280;5455;53.224;6.000;2023-12-14T03:05:42;101343.78;;;5.93;100.00
10806;BME280;5455;53.224;6.000;2023-12-14T03:08:09;101356.19;;;5.99;100.00
10806;BME280;5455;53.224;6.000;2023-12-14T03:10:36;101364.22;;;5.95;100.00
10806;BME280;5455;53.224;6.000;2023-12-14T03:13:03;101362.13;;;5.92;100.00
10806;BME280;5455;53.224;6.000;2023-12-14T03:15:30;101360.81;;;5.90;100.00
10806;BME280;5455;53.224;6.000;2023-12-14T03:17:56;101361.44;;;5.87;100.00
10806;BME280;5455;53.224;6.000;2023-12-14T03:20:24;101360.81;;;5.90;100.00
10806;BME280;5455;53.224;6.000;2023-12-14T03:22:51;101352.13;;;5.88;100.00
10806;BME280;5455;53.224;6.000;2023-12-14T03:25:18;101351.50;;;5.91;100.00
10806;BME280;5455;53.224;6.000;2023-12-14T03:27:48;101352.00;;;5.93;100.00
10806;BME280;5455;53.224;6.000;2023-12-14T03:30:15;101362.13;;;5.92;100.00
10806;BME280;5455;53.224;6.000;2023-12-14T03:32:42;101362.44;;;5.91;100.00
10806;BME280;5455;53.224;6.000;2023-12-14T03:35:09;101362.94;;;5.93;100.00
10806;BME280;5455;53.224;6.000;2023-12-14T03:37:36;101370.22;;;5.97;100.00
10806;BME280;5455;53.224;6.000;2023-12-14T03:40:03;101371.97;;;5.93;100.00
10806;BME280;5455;53.224;6.000;2023-12-14T03:42:30;101372.25;;;5.92;100.00
10806;BME280;5455;53.224;6.000;2023-12-14T03:44:58;101376.81;;;5.96;100.00
10806;BME280;5455;53.224;6.000;2023-12-14T03:47:24;101373.88;;;5.93;100.00
10806;BME280;5455;53.224;6.000;2023-12-14T03:49:51;101381.59;;;5.91;100.00
10806;BME280;5455;53.224;6.000;2023-12-14T03:52:18;101376.00;;;5.96;100.00
10806;BME280;5455;53.224;6.000;2023-12-14T03:54:46;101384.19;;;5.96;100.00
10806;BME280;5455;53.224;6.000;2023-12-14T03:57:13;101391.94;;;5.94;100.00
10806;BME280;5455;53.224;6.000;2023-12-14T03:59:39;101382.91;;;5.93;100.00
10806;BME280;5455;53.224;6.000;2023-12-14T04:02:07;101390.63;;;5.91;100.00
10806;BME280;5455;53.224;6.000;2023-12-14T04:04:34;101388.53;;;5.88;100.00
10806;BME280;5455;53.224;6.000;2023-12-14T04:07:01;101389.81;;;5.91;100.00
10806;BME280;5455;53.224;6.000;2023-12-14T04:09:28;101399.00;;;5.95;100.00
10806;BME280;5455;53.224;6.000;2023-12-14T04:11:55;101405.28;;;5.95;100.00
10806;BME280;5455;53.224;6.000;2023-12-14T04:14:22;101410.75;;;5.95;100.00
10806;BME280;5455;53.224;6.000;2023-12-14T04:16:49;101423.94;;;5.93;100.00
10806;BME280;5455;53.224;6.000;2023-12-14T04:19:16;101423.16;;;5.93;100.00
10806;BME280;5455;53.224;6.000;2023-12-14T04:21:43;101427.81;;;5.92;100.00
10806;BME280;5455;53.224;6.000;2023-12-14T04:24:13;101429.56;;;5.88;100.00
10806;BME280;5455;53.224;6.000;2023-12-14T04:26:40;101428.34;;;5.81;100.00
10806;BME280;5455;53.224;6.000;2023-12-14T04:29:07;101430.19;;;5.85;100.00
10806;BME280;5455;53.224;6.000;2023-12-14T04:31:34;101438.06;;;5.87;100.00
10806;BME280;5455;53.224;6.000;2023-12-14T04:34:02;101440.88;;;5.95;100.00
10806;BME280;5455;53.224;6.000;2023-12-14T04:36:29;101454.88;;;5.94;100.00
10806;BME280;5455;53.224;6.000;2023-12-14T04:38:56;101443.94;;;5.94;100.00
10806;BME280;5455;53.224;6.000;2023-12-14T04:41:23;101455.50;;;5.91;100.00
10806;BME280;5455;53.224;6.000;2023-12-14T04:43:50;101450.31;;;5.89;100.00
10806;BME280;5455;53.224;6.000;2023-12-14T04:46:17;101460.78;;;5.87;100.00
10806;BME280;5455;53.224;6.000;2023-12-14T04:48:44;101463.38;;;5.92;100.00
10806;BME280;5455;53.224;6.000;2023-12-14T04:51:11;101459.66;;;5.88;100.00
10806;BME280;5455;53.224;6.000;2023-12-14T04:53:39;101465.44;;;5.87;100.00
10806;BME280;5455;53.224;6.000;2023-12-14T04:56:10;101460.44;;;5.89;100.00
10806;BME280;5455;53.224;6.000;2023-12-14T04:58:39;101472.22;;;5.89;100.00
10806;BME280;5455;53.224;6.000;2023-12-14T05:01:06;101475.63;;;5.95;100.00
10806;BME280;5455;53.224;6.000;2023-12-14T05:03:35;101471.91;;;5.91;100.00
10806;BME280;5455;53.224;6.000;2023-12-14T05:06:02;101483.50;;;5.88;100.00
10806;BME280;5455;53.224;6.000;2023-12-14T05:08:29;101483.50;;;5.88;100.00
10806;BME280;5455;53.224;6.000;2023-12-14T05:10:56;101488.63;;;5.89;100.00
10806;BME280;5455;53.224;6.000;2023-12-14T05:13:23;101496.03;;;5.89;100.00
10806;BME280;5455;53.224;6.000;2023-12-14T05:15:50;101496.66;;;5.86;100.00
10806;BME280;5455;53.224;6.000;2023-12-14T05:18:18;101507.59;;;5.86;100.00
10806;BME280;5455;53.224;6.000;2023-12-14T05:20:46;101508.41;;;5.86;100.00
10806;BME280;5455;53.224;6.000;2023-12-14T05:23:13;101512.44;;;5.89;100.00
10806;BME280;5455;53.224;6.000;2023-12-14T05:25:41;101528.25;;;5.92;100.00
10806;BME280;5455;53.224;6.000;2023-12-14T05:28:08;101525.22;;;5.93;100.00
10806;BME280;5455;53.224;6.000;2023-12-14T05:30:35;101528.56;;;5.90;100.00
10806;BME280;5455;53.224;6.000;2023-12-14T05:33:02;101525.66;;;5.87;100.00
10806;BME280;5455;53.224;6.000;2023-12-14T05:35:29;101535.16;;;5.89;100.00
10806;BME280;5455;53.224;6.000;2023-12-14T05:37:56;101546.00;;;5.94;100.00
10806;BME280;5455;53.224;6.000;2023-12-14T05:40:23;101538.91;;;5.93;100.00
10806;BME280;5455;53.224;6.000;2023-12-14T05:42:50;101539.19;;;5.92;100.00
10806;BME280;5455;53.224;6.000;2023-12-14T05:45:17;101547.31;;;5.97;100.00
10806;BME280;5455;53.224;6.000;2023-12-14T05:47:45;101547.41;;;5.92;100.00
10806;BME280;5455;53.224;6.000;2023-12-14T05:50:12;101551.97;;;5.96;100.00
10806;BME280;5455;53.224;6.000;2023-12-14T05:52:39;101553.06;;;5.95;100.00
10806;BME280;5455;53.224;6.000;2023-12-14T05:55:10;101559.56;;;5.99;100.00
10806;BME280;5455;53.224;6.000;2023-12-14T05:57:37;101563.59;;;6.02;100.00
10806;BME280;5455;53.224;6.000;2023-12-14T06:00:05;101567.97;;;6.03;100.00
10806;BME280;5455;53.224;6.000;2023-12-14T06:02:33;101570.06;;;6.06;100.00
10806;BME280;5455;53.224;6.000;2023-12-14T06:05:03;101578.47;;;6.09;100.00
10806;BME280;5455;53.224;6.000;2023-12-14T06:07:30;101586.38;;;6.11;100.00
10806;BME280;5455;53.224;6.000;2023-12-14T06:09:57;101591.22;;;6.14;100.00
10806;BME280;5455;53.224;6.000;2023-12-14T06:12:24;101592.16;;;6.09;100.00
10806;BME280;5455;53.224;6.000;2023-12-14T06:14:51;101592.94;;;6.10;100.00
10806;BME280;5455;53.224;6.000;2023-12-14T06:17:18;101594.09;;;6.09;100.00
10806;BME280;5455;53.224;6.000;2023-12-14T06:19:46;101591.34;;;6.09;100.00
10806;BME280;5455;53.224;6.000;2023-12-14T06:22:13;101595.06;;;6.13;100.00
10806;BME280;5455;53.224;6.000;2023-12-14T06:24:39;101589.78;;;6.17;100.00
10806;BME280;5455;53.224;6.000;2023-12-14T06:27:07;101594.16;;;6.18;100.00
10806;BME280;5455;53.224;6.000;2023-12-14T06:29:34;101584.94;;;6.14;100.00
10806;BME280;5455;53.224;6.000;2023-12-14T06:32:01;101589.78;;;6.17;100.00
10806;BME280;5455;53.224;6.000;2023-12-14T06:34:27;101596.88;;;6.18;100.00
10806;BME280;5455;53.224;6.000;2023-12-14T06:36:54;101596.41;;;6.16;100.00
10806;BME280;5455;53.224;6.000;2023-12-14T06:39:22;101596.69;;;6.14;100.00
10806;BME280;5455;53.224;6.000;2023-12-14T06:41:52;101601.34;;;6.14;100.00
10806;BME280;5455;53.224;6.000;2023-12-14T06:44:19;101606.41;;;6.20;100.00
10806;BME280;5455;53.224;6.000;2023-12-14T06:46:46;101612.69;;;6.21;100.00
10806;BME280;5455;53.224;6.000;2023-12-14T06:49:13;101620.22;;;6.15;100.00
10806;BME280;5455;53.224;6.000;2023-12-14T06:51:40;101620.72;;;6.17;100.00
10806;BME280;5455;53.224;6.000;2023-12-14T06:54:07;101626.53;;;6.16;100.00
10806;BME280;5455;53.224;6.000;2023-12-14T06:56:36;101624.47;;;6.21;100.00
10806;BME280;5455;53.224;6.000;2023-12-14T06:59:03;101625.56;;;6.20;100.00
10806;BME280;5455;53.224;6.000;2023-12-14T07:01:30;101621.72;;;6.21;100.00
10806;BME280;5455;53.224;6.000;2023-12-14T07:03:57;101634.28;;;6.22;100.00
10806;BME280;5455;53.224;6.000;2023-12-14T07:06:24;101644.59;;;6.25;100.00
10806;BME280;5455;53.224;6.000;2023-12-14T07:08:51;101641.25;;;6.28;100.00
10806;BME280;5455;53.224;6.000;2023-12-14T07:11:18;101648.97;;;6.26;100.00
10806;BME280;5455;53.224;6.000;2023-12-14T07:13:45;101652.19;;;6.28;100.00
10806;BME280;5455;53.224;6.000;2023-12-14T07:16:13;101662.88;;;6.30;100.00
10806;BME280;5455;53.224;6.000;2023-12-14T07:18:41;101667.03;;;6.27;100.00
10806;BME280;5455;53.224;6.000;2023-12-14T07:21:08;101673.00;;;6.29;100.00
10806;BME280;5455;53.224;6.000;2023-12-14T07:23:36;101677.03;;;6.32;100.00
10806;BME280;5455;53.224;6.000;2023-12-14T07:26:04;101682.66;;;6.27;100.00
10806;BME280;5455;53.224;6.000;2023-12-14T07:28:33;101679.28;;;6.30;100.00
10806;BME280;5455;53.224;6.000;2023-12-14T07:31:00;101683.81;;;6.34;100.00
10806;BME280;5455;53.224;6.000;2023-12-14T07:33:27;101693.69;;;6.35;100.00
10806;BME280;5455;53.224;6.000;2023-12-14T07:35:54;101703.53;;;6.36;100.00
10806;BME280;5455;53.224;6.000;2023-12-14T07:38:22;101707.97;;;6.32;100.00
10806;BME280;5455;53.224;6.000;2023-12-14T07:40:49;101711.84;;;6.31;100.00
10806;BME280;5455;53.224;6.000;2023-12-14T07:43:17;101724.13;;;6.34;100.00
10806;BME280;5455;53.224;6.000;2023-12-14T07:45:44;101720.78;;;6.37;100.00
10806;BME280;5455;53.224;6.000;2023-12-14T07:48:12;101719.94;;;6.36;100.00
10806;BME280;5455;53.224;6.000;2023-12-14T07:50:39;101724.63;;;6.36;100.00
10806;BME280;5455;53.224;6.000;2023-12-14T07:53:06;101732.63;;;6.32;100.00
10806;BME280;5455;53.224;6.000;2023-12-14T07:55:33;101738.31;;;6.36;100.00
10806;BME280;5455;53.224;6.000;2023-12-14T07:58:00;101740.72;;;6.37;100.00
10806;BME280;5455;53.224;6.000;2023-12-14T08:00:27;101732.84;;;6.36;100.00
10806;BME280;5455;53.224;6.000;2023-12-14T08:02:54;101737.50;;;6.35;100.00
10806;BME280;5455;53.224;6.000;2023-12-14T08:05:21;101744.09;;;6.34;100.00
10806;BME280;5455;53.224;6.000;2023-12-14T08:07:48;101746.19;;;6.37;100.00
10806;BME280;5455;53.224;6.000;2023-12-14T08:10:19;101745.59;;;6.40;100.00
10806;BME280;5455;53.224;6.000;2023-12-14T08:12:46;101742.56;;;6.42;100.00
10806;BME280;5455;53.224;6.000;2023-12-14T08:15:14;101733.03;;;6.39;100.00
10806;BME280;5455;53.224;6.000;2023-12-14T08:17:41;101741.25;;;6.39;100.00
10806;BME280;5455;53.224;6.000;2023-12-14T08:20:09;101750.78;;;6.42;100.00
10806;BME280;5455;53.224;6.000;2023-12-14T08:22:38;101755.84;;;6.48;100.00
10806;BME280;5455;53.224;6.000;2023-12-14T08:25:14;101759.25;;;6.54;100.00
10806;BME280;5455;53.224;6.000;2023-12-14T08:27:42;101758.44;;;6.53;100.00
10806;BME280;5455;53.224;6.000;2023-12-14T08:30:11;101771.81;;;6.55;100.00
10806;BME280;5455;53.224;6.000;2023-12-14T08:32:39;101772.00;;;6.58;100.00
10806;BME280;5455;53.224;6.000;2023-12-14T08:35:07;101780.75;;;6.60;100.00
10806;BME280;5455;53.224;6.000;2023-12-14T08:37:35;101780.84;;;6.55;100.00
10806;BME280;5455;53.224;6.000;2023-12-14T08:40:03;101779.88;;;6.51;100.00
10806;BME280;5455;53.224;6.000;2023-12-14T08:42:30;101789.69;;;6.52;100.00
10806;BME280;5455;53.224;6.000;2023-12-14T08:44:57;101789.41;;;6.54;100.00
10806;BME280;5455;53.224;6.000;2023-12-14T08:47:24;101794.56;;;6.55;100.00
10806;BME280;5455;53.224;6.000;2023-12-14T08:49:51;101793.50;;;6.65;100.00
10806;BME280;5455;53.224;6.000;2023-12-14T08:52:18;101796.25;;;6.65;100.00
10806;BME280;5455;53.224;6.000;2023-12-14T08:54:46;101790.69;;;6.56;100.00
10806;BME280;5455;53.224;6.000;2023-12-14T08:57:13;101789.06;;;6.55;100.00
10806;BME280;5455;53.224;6.000;2023-12-14T08:59:40;101796.06;;;6.61;100.00
10806;BME280;5455;53.224;6.000;2023-12-14T09:02:10;101788.66;;;6.62;100.00
10806;BME280;5455;53.224;6.000;2023-12-14T09:04:37;101784.81;;;6.63;100.00
10806;BME280;5455;53.224;6.000;2023-12-14T09:07:04;101788.84;;;6.65;100.00
10806;BME280;5455;53.224;6.000;2023-12-14T09:09:31;101793.09;;;6.72;100.00
10806;BME280;5455;53.224;6.000;2023-12-14T09:11:59;101794.19;;;6.71;100.00
10806;BME280;5455;53.224;6.000;2023-12-14T09:14:26;101798.88;;;6.70;100.00
10806;BME280;5455;53.224;6.000;2023-12-14T09:16:53;101793.09;;;6.72;100.00
10806;BME280;5455;53.224;6.000;2023-12-14T09:19:20;101805.84;;;6.76;100.00
10806;BME280;5455;53.224;6.000;2023-12-14T09:21:48;101810.41;;;6.81;100.00
10806;BME280;5455;53.224;6.000;2023-12-14T09:24:15;101818.56;;;6.94;100.00
10806;BME280;5455;53.224;6.000;2023-12-14T09:26:42;101822.03;;;7.00;100.00
10806;BME280;5455;53.224;6.000;2023-12-14T09:29:10;101810.59;;;7.06;100.00
10806;BME280;5455;53.224;6.000;2023-12-14T09:31:41;101824.63;;;7.05;100.00
10806;BME280;5455;53.224;6.000;2023-12-14T09:34:10;101826.56;;;7.04;100.00
10806;BME280;5455;53.224;6.000;2023-12-14T09:36:38;101828.88;;;7.11;100.00
10806;BME280;5455;53.224;6.000;2023-12-14T09:39:05;101835.28;;;7.06;100.00
10806;BME280;5455;53.224;6.000;2023-12-14T09:41:38;101835.75;;;7.00;100.00
10806;BME280;5455;53.224;6.000;2023-12-14T09:44:06;101827.25;;;6.88;100.00
10806;BME280;5455;53.224;6.000;2023-12-14T09:46:36;101828.59;;;6.77;100.00
10806;BME280;5455;53.224;6.000;2023-12-14T09:49:05;101837.56;;;6.69;100.00
10806;BME280;5455;53.224;6.000;2023-12-14T09:51:34;101839.59;;;6.63;100.00
10806;BME280;5455;53.224;6.000;2023-12-14T09:54:01;101845.38;;;6.61;100.00
10806;BME280;5455;53.224;6.000;2023-12-14T09:56:29;101843.44;;;6.62;100.00
10806;BME280;5455;53.224;6.000;2023-12-14T09:58:57;101845.09;;;6.63;100.00
10806;BME280;5455;53.224;6.000;2023-12-14T10:01:26;101851.38;;;6.63;100.00
10806;BME280;5455;53.224;6.000;2023-12-14T10:04:11;101846.88;;;6.68;100.00
10806;BME280;5455;53.224;6.000;2023-12-14T10:06:40;101850.75;;;6.67;100.00
10806;BME280;5455;53.224;6.000;2023-12-14T10:09:08;101845.56;;;6.79;100.00
10806;BME280;5455;53.224;6.000;2023-12-14T10:11:45;101846.13;;;6.89;100.00
10806;BME280;5455;53.224;6.000;2023-12-14T10:14:23;101861.41;;;7.04;100.00
10806;BME280;5455;53.224;6.000;2023-12-14T10:16:52;101867.28;;;7.11;100.00
10806;BME280;5455;53.224;6.000;2023-12-14T10:19:29;101871.09;;;7.24;100.00
10806;BME280;5455;53.224;6.000;2023-12-14T10:21:56;101877.94;;;7.35;100.00
10806;BME280;5455;53.224;6.000;2023-12-14T10:24:23;101875.25;;;7.43;100.00
10806;BME280;5455;53.224;6.000;2023-12-14T10:26:50;101883.97;;;7.45;100.00
10806;BME280;5455;53.224;6.000;2023-12-14T10:29:18;101878.38;;;7.50;100.00
10806;BME280;5455;53.224;6.000;2023-12-14T10:31:45;101894.41;;;7.57;100.00
10806;BME280;5455;53.224;6.000;2023-12-14T10:34:13;101891.66;;;7.57;100.00
10806;BME280;5455;53.224;6.000;2023-12-14T10:36:41;101892.44;;;7.57;100.00
10806;BME280;5455;53.224;6.000;2023-12-14T10:39:11;101890.22;;;7.59;100.00
10806;BME280;5455;53.224;6.000;2023-12-14T10:41:45;101891.66;;;7.57;100.00
10806;BME280;5455;53.224;6.000;2023-12-14T10:44:21;101887.97;;;7.61;100.00
10806;BME280;5455;53.224;6.000;2023-12-14T10:47:12;101889.16;;;7.69;100.00
10806;BME280;5455;53.224;6.000;2023-12-14T10:49:42;101876.09;;;7.74;100.00
10806;BME280;5455;53.224;6.000;2023-12-14T10:52:11;101877.22;;;7.73;100.00
10806;BME280;5455;53.224;6.000;2023-12-14T10:54:39;101879.78;;;7.70;100.00
10806;BME280;5455;53.224;6.000;2023-12-14T10:57:07;101899.31;;;7.68;100.00
10806;BME280;5455;53.224;6.000;2023-12-14T10:59:35;101899.44;;;7.63;100.00
10806;BME280;5455;53.224;6.000;2023-12-14T11:02:09;101901.25;;;7.68;100.00
10806;BME280;5455;53.224;6.000;2023-12-14T11:05:00;101905.44;;;7.65;100.00
10806;BME280;5455;53.224;6.000;2023-12-14T11:07:46;101911.41;;;7.67;100.00
10806;BME280;5455;53.224;6.000;2023-12-14T11:10:14;101917.97;;;7.58;100.00
10806;BME280;5455;53.224;6.000;2023-12-14T11:12:56;101924.59;;;7.57;100.00
10806;BME280;5455;53.224;6.000;2023-12-14T11:15:28;101935.09;;;7.63;100.00
10806;BME280;5455;53.224;6.000;2023-12-14T11:23:16;101935.09;;;7.63;100.00
10806;BME280;5455;53.224;6.000;2023-12-14T11:25:51;101931.25;;;7.64;100.00
10806;BME280;5455;53.224;6.000;2023-12-14T11:28:25;101942.81;;;7.75;100.00
10806;BME280;5455;53.224;6.000;2023-12-14T11:30:54;101943.78;;;7.79;100.00
10806;BME280;5455;53.224;6.000;2023-12-14T11:33:23;101940.72;;;7.81;100.00
10806;BME280;5455;53.224;6.000;2023-12-14T11:35:51;101948.81;;;7.86;100.00
10806;BME280;5455;53.224;6.000;2023-12-14T11:38:22;101949.22;;;7.70;100.00
10806;BME280;5455;53.224;6.000;2023-12-14T11:40:50;101945.97;;;7.68;100.00
10806;BME280;5455;53.224;6.000;2023-12-14T11:43:18;101946.91;;;7.64;100.00
10806;BME280;5455;53.224;6.000;2023-12-14T11:45:48;101953.84;;;7.61;100.00
10806;BME280;5455;53.224;6.000;2023-12-14T11:48:16;101962.69;;;7.58;100.00
10806;BME280;5455;53.224;6.000;2023-12-14T11:50:43;101944.72;;;7.52;100.00
10806;BME280;5455;53.224;6.000;2023-12-14T11:53:11;101955.94;;;7.42;100.00
10806;BME280;5455;53.224;6.000;2023-12-14T11:55:41;101964.16;;;7.42;100.00
10806;BME280;5455;53.224;6.000;2023-12-14T11:58:08;101972.53;;;7.37;100.00
10806;BME280;5455;53.224;6.000;2023-12-14T12:00:35;101972.28;;;7.47;100.00
10806;BME280;5455;53.224;6.000;2023-12-14T12:05:41;101978.47;;;7.53;100.00
10806;BME280;5455;53.224;6.000;2023-12-14T12:08:09;101982.31;;;7.52;100.00
10806;BME280;5455;53.224;6.000;2023-12-14T12:10:38;101987.88;;;7.60;100.00
10806;BME280;5455;53.224;6.000;2023-12-14T12:13:16;101987.53;;;7.53;100.00
10806;BME280;5455;53.224;6.000;2023-12-14T12:15:44;101983.97;;;7.53;100.00
10806;BME280;5455;53.224;6.000;2023-12-14T12:18:15;101984.78;;;7.53;100.00
10806;BME280;5455;53.224;6.000;2023-12-14T12:20:46;101992.06;;;7.58;100.00
10806;BME280;5455;53.224;6.000;2023-12-14T12:23:13;101990.25;;;7.53;100.00
10806;BME280;5455;53.224;6.000;2023-12-14T12:25:40;101986.56;;;7.58;100.00
10806;BME280;5455;53.224;6.000;2023-12-14T12:28:07;101993.88;;;7.62;100.00
10806;BME280;5455;53.224;6.000;2023-12-14T12:30:35;101987.59;;;7.62;100.00
10806;BME280;5455;53.224;6.000;2023-12-14T12:33:07;101978.41;;;7.66;100.00
10806;BME280;5455;53.224;6.000;2023-12-14T12:35:34;101972.28;;;7.69;100.00
10806;BME280;5455;53.224;6.000;2023-12-14T12:38:01;101983.22;;;7.61;100.00
10806;BME280;5455;53.224;6.000;2023-12-14T12:40:30;101981.41;;;7.56;100.00
10806;BME280;5455;53.224;6.000;2023-12-14T12:42:58;101977.53;;;7.57;100.00
10806;BME280;5455;53.224;6.000;2023-12-14T12:45:25;101971.53;;;7.55;100.00
10806;BME280;5455;53.224;6.000;2023-12-14T12:47:55;101970.00;;;7.63;100.00
10806;BME280;5455;53.224;6.000;2023-12-14T12:50:22;101959.72;;;7.68;100.00
10806;BME280;5455;53.224;6.000;2023-12-14T12:52:49;101963.28;;;7.69;100.00
10806;BME280;5455;53.224;6.000;2023-12-14T12:55:18;101969.38;;;7.66;100.00
10806;BME280;5455;53.224;6.000;2023-12-14T12:57:45;101961.78;;;7.63;100.00
10806;BME280;5455;53.224;6.000;2023-12-14T13:00:14;101964.00;;;7.61;100.00
10806;BME280;5455;53.224;6.000;2023-12-14T13:02:42;101964.63;;;7.58;100.00
10806;BME280;5455;53.224;6.000;2023-12-14T13:05:10;101969.47;;;7.61;100.00
10806;BME280;5455;53.224;6.000;2023-12-14T13:07:44;101966.94;;;7.64;100.00
10806;BME280;5455;53.224;6.000;2023-12-14T13:10:12;101970.16;;;7.66;100.00
10806;BME280;5455;53.224;6.000;2023-12-14T13:12:55;101972.28;;;7.69;100.00